createdAt,value
2022-07-25T00:02:13.892Z,101129.38
2022-07-25T00:04:43.408Z,101129.16
2022-07-25T00:07:11.806Z,101123.56
2022-07-25T00:09:39.951Z,101121.28
2022-07-25T00:12:08.171Z,101116.50
2022-07-25T00:14:39.106Z,101102.81
2022-07-25T00:17:06.982Z,101103.03
2022-07-25T00:19:34.843Z,101092.47
2022-07-25T00:22:04.045Z,101104.28
2022-07-25T00:24:31.900Z,101091.59
2022-07-25T00:26:59.779Z,101088.75
2022-07-25T00:29:27.587Z,101078.38
2022-07-25T00:31:55.415Z,101075.25
2022-07-25T00:34:23.334Z,101069.63
2022-07-25T00:36:51.144Z,101066.53
2022-07-25T00:39:20.273Z,101064.47
2022-07-25T00:41:48.137Z,101053.50
2022-07-25T00:44:24.669Z,101065.31
2022-07-25T00:46:53.402Z,101072.97
2022-07-25T00:49:21.434Z,101059.06
2022-07-25T00:51:49.393Z,101057.81
2022-07-25T00:54:17.495Z,101068.19
2022-07-25T00:56:47.128Z,101068.41
2022-07-25T00:59:14.999Z,101058.06
2022-07-25T01:01:42.830Z,101073.81
2022-07-25T01:04:10.732Z,101062.41
2022-07-25T01:06:38.597Z,101076.91
2022-07-25T01:09:08.624Z,101078.97
2022-07-25T01:11:36.475Z,101082.50
2022-07-25T01:14:06.106Z,101085.22
2022-07-25T01:16:34.468Z,101087.50
2022-07-25T01:19:02.355Z,101076.69
2022-07-25T01:21:31.477Z,101077.75
2022-07-25T01:23:59.314Z,101085.19
2022-07-25T01:26:27.089Z,101068.84
2022-07-25T01:28:54.990Z,101067.19
2022-07-25T01:31:22.881Z,101068.84
2022-07-25T01:33:50.809Z,101056.81
2022-07-25T01:36:19.741Z,101060.53
2022-07-25T01:38:48.984Z,101047.28
2022-07-25T01:41:22.345Z,101024.84
2022-07-25T01:43:50.675Z,101025.25
2022-07-25T01:46:18.947Z,101029.66
2022-07-25T01:48:46.884Z,101031.75
2022-07-25T01:51:19.835Z,101027.94
2022-07-25T01:53:49.791Z,101021.69
2022-07-25T01:56:17.732Z,101021.78
2022-07-25T01:58:48.614Z,101031.09
2022-07-25T02:01:16.558Z,101016.94
2022-07-25T02:03:45.424Z,101016.56
2022-07-25T02:06:13.221Z,101014.69
2022-07-25T02:08:41.012Z,101021.97
2022-07-25T02:11:10.570Z,101018.63
2022-07-25T02:13:38.344Z,101019.88
2022-07-25T02:16:06.652Z,101010.13
2022-07-25T02:18:34.469Z,101017.78
2022-07-25T02:21:02.580Z,100999.50
2022-07-25T02:23:30.373Z,100996.25
2022-07-25T02:25:58.119Z,100999.94
2022-07-25T02:28:27.294Z,100994.53
2022-07-25T02:30:55.341Z,100985.44
2022-07-25T02:33:23.294Z,100973.88
2022-07-25T02:35:51.164Z,100972.19
2022-07-25T02:38:20.592Z,100975.69
2022-07-25T02:40:48.506Z,100961.22
2022-07-25T02:43:16.290Z,100965.69
2022-07-25T02:45:45.910Z,100964.09
2022-07-25T02:48:13.873Z,100957.91
2022-07-25T02:50:42.016Z,100949.59
2022-07-25T02:53:09.843Z,100965.53
2022-07-25T02:55:37.671Z,100963.09
2022-07-25T02:58:05.596Z,100958.94
2022-07-25T03:00:33.735Z,100955.34
2022-07-25T03:03:03.264Z,100949.19
2022-07-25T03:05:32.125Z,100939.00
2022-07-25T03:07:59.933Z,100946.03
2022-07-25T03:10:27.867Z,100944.22
2022-07-25T03:12:55.700Z,100939.63
2022-07-25T03:15:23.522Z,100940.69
2022-07-25T03:17:51.569Z,100948.31
2022-07-25T03:20:20.744Z,100946.31
2022-07-25T03:22:49.161Z,100946.91
2022-07-25T03:25:21.357Z,100935.91
2022-07-25T03:27:50.300Z,100930.72
2022-07-25T03:30:18.218Z,100922.25
2022-07-25T03:32:46.044Z,100939.03
2022-07-25T03:35:13.828Z,100942.34
2022-07-25T03:37:43.017Z,100939.03
2022-07-25T03:40:11.823Z,100945.69
2022-07-25T03:42:39.626Z,100935.75
2022-07-25T03:45:08.597Z,100932.25
2022-07-25T03:47:36.390Z,100935.56
2022-07-25T03:50:04.437Z,100933.91
2022-07-25T03:52:32.228Z,100939.69
2022-07-25T03:55:01.405Z,100942.63
2022-07-25T03:57:29.180Z,100950.31
2022-07-25T03:59:56.972Z,100955.28
2022-07-25T04:02:24.824Z,100961.06
2022-07-25T04:04:52.732Z,100956.09
2022-07-25T04:07:20.590Z,100960.81
2022-07-25T04:09:48.439Z,100956.31
2022-07-25T04:12:17.681Z,100940.34
2022-07-25T04:14:45.691Z,100952.97
2022-07-25T04:17:13.623Z,100936.00
2022-07-25T04:19:41.519Z,100938.69
2022-07-25T04:22:09.507Z,100918.59
2022-07-25T04:24:37.494Z,100938.66
2022-07-25T04:27:05.553Z,100922.94
2022-07-25T04:29:34.804Z,100927.31
2022-07-25T04:32:03.241Z,100915.91
2022-07-25T04:34:34.007Z,100913.00
2022-07-25T04:37:01.832Z,100919.84
2022-07-25T04:39:29.717Z,100914.44
2022-07-25T04:41:57.548Z,100915.00
2022-07-25T04:44:25.292Z,100921.44
2022-07-25T04:46:54.455Z,100929.69
2022-07-25T04:49:22.275Z,100925.75
2022-07-25T04:51:50.158Z,100927.22
2022-07-25T04:54:17.979Z,100929.88
2022-07-25T04:56:45.832Z,100917.09
2022-07-25T04:59:13.659Z,100922.59
2022-07-25T05:01:41.491Z,100923.38
2022-07-25T05:04:10.741Z,100917.59
2022-07-25T05:06:38.575Z,100922.72
2022-07-25T05:09:06.400Z,100916.72
2022-07-25T05:11:34.198Z,100926.03
2022-07-25T05:14:02.827Z,100927.00
2022-07-25T05:16:30.878Z,100919.41
2022-07-25T05:18:58.730Z,100913.44
2022-07-25T05:21:28.175Z,100914.13
2022-07-25T05:23:55.990Z,100912.91
2022-07-25T05:26:23.782Z,100916.06
2022-07-25T05:28:51.549Z,100913.44
2022-07-25T05:31:19.383Z,100915.81
2022-07-25T05:33:47.237Z,100909.09
2022-07-25T05:36:15.075Z,100919.84
2022-07-25T05:38:44.239Z,100920.09
2022-07-25T05:41:12.054Z,100923.25
2022-07-25T05:43:39.894Z,100915.41
2022-07-25T05:46:07.681Z,100915.75
2022-07-25T05:48:35.545Z,100921.63
2022-07-25T05:51:03.352Z,100916.22
2022-07-25T05:53:31.186Z,100912.47
2022-07-25T05:56:00.365Z,100914.41
2022-07-25T05:58:30.034Z,100913.31
2022-07-25T06:00:58.771Z,100905.69
2022-07-25T06:03:26.978Z,100904.66
2022-07-25T06:05:56.397Z,100900.84
2022-07-25T06:08:24.368Z,100907.06
2022-07-25T06:10:52.823Z,100905.47
2022-07-25T06:13:22.050Z,100892.06
2022-07-25T06:15:51.599Z,100895.44
2022-07-25T06:18:19.577Z,100886.53
2022-07-25T06:20:47.481Z,100886.41
2022-07-25T06:23:15.398Z,100891.03
2022-07-25T06:25:43.259Z,100892.31
2022-07-25T06:28:18.192Z,100894.22
2022-07-25T06:30:48.397Z,100891.94
2022-07-25T06:33:16.297Z,100892.78
2022-07-25T06:35:44.095Z,100887.25
2022-07-25T06:38:11.958Z,100882.28
2022-07-25T06:40:39.728Z,100879.47
2022-07-25T06:43:07.864Z,100877.84
2022-07-25T06:45:35.815Z,100878.28
2022-07-25T06:48:05.475Z,100879.09
2022-07-25T06:50:33.268Z,100883.66
2022-07-25T06:53:01.075Z,100868.84
2022-07-25T06:55:28.830Z,100865.94
2022-07-25T06:57:56.535Z,100858.44
2022-07-25T07:00:24.518Z,100856.41
2022-07-25T07:02:55.960Z,100856.50
2022-07-25T07:05:25.970Z,100855.78
2022-07-25T07:07:54.109Z,100847.44
2022-07-25T07:10:23.210Z,100850.88
2022-07-25T07:12:52.159Z,100845.09
2022-07-25T07:15:19.984Z,100847.91
2022-07-25T07:17:47.748Z,100839.09
2022-07-25T07:20:15.541Z,100830.59
2022-07-25T07:22:48.880Z,100828.22
2022-07-25T07:25:20.861Z,100834.16
2022-07-25T07:27:49.292Z,100821.84
2022-07-25T07:30:22.222Z,100819.06
2022-07-25T07:32:52.309Z,100826.25
2022-07-25T07:35:20.189Z,100809.88
2022-07-25T07:37:49.402Z,100810.09
2022-07-25T07:40:18.037Z,100814.63
2022-07-25T07:42:48.010Z,100809.16
2022-07-25T07:45:17.983Z,100802.13
2022-07-25T07:47:48.025Z,100801.28
2022-07-25T07:50:17.174Z,100794.41
2022-07-25T07:52:45.757Z,100790.75
2022-07-25T07:55:32.824Z,100781.16
2022-07-25T07:58:01.075Z,100789.09
2022-07-25T08:00:30.984Z,100779.75
2022-07-25T08:03:00.221Z,100773.56
2022-07-25T08:05:30.753Z,100781.38
2022-07-25T08:07:59.547Z,100771.13
2022-07-25T08:10:30.889Z,100775.69
2022-07-25T08:13:00.122Z,100767.28
2022-07-25T08:15:28.294Z,100769.84
2022-07-25T08:17:56.064Z,100763.06
2022-07-25T08:20:39.705Z,100769.03
2022-07-25T08:23:07.690Z,100750.78
2022-07-25T08:25:36.886Z,100746.13
2022-07-25T08:28:06.306Z,100746.91
2022-07-25T08:30:34.872Z,100742.84
2022-07-25T08:33:04.483Z,100749.38
2022-07-25T08:35:34.309Z,100738.19
2022-07-25T08:38:03.026Z,100733.00
2022-07-25T08:40:33.222Z,100740.09
2022-07-25T08:43:02.343Z,100736.53
2022-07-25T08:45:30.277Z,100736.81
2022-07-25T08:47:58.187Z,100725.88
2022-07-25T08:50:29.756Z,100726.09
2022-07-25T08:53:29.896Z,100715.66
2022-07-25T08:55:46.675Z,100718.50
2022-07-25T08:58:17.862Z,100718.47
2022-07-25T09:00:46.303Z,100712.75
2022-07-25T09:03:14.308Z,100717.91
2022-07-25T09:05:42.465Z,100713.56
2022-07-25T09:08:12.532Z,100711.53
2022-07-25T09:10:43.460Z,100713.88
2022-07-25T09:13:15.041Z,100708.72
2022-07-25T09:15:46.841Z,100685.25
2022-07-25T09:18:17.059Z,100688.53
2022-07-25T09:20:46.735Z,100679.88
2022-07-25T09:23:16.177Z,100676.88
2022-07-25T09:25:44.029Z,100670.25
2022-07-25T09:28:13.992Z,100691.28
2022-07-25T09:30:42.890Z,100665.16
2022-07-25T09:33:12.061Z,100669.00
2022-07-25T09:35:41.251Z,100649.84
2022-07-25T09:38:11.077Z,100653.34
2022-07-25T09:40:38.914Z,100650.59
2022-07-25T09:43:07.721Z,100642.44
2022-07-25T09:45:35.603Z,100658.91
2022-07-25T09:48:05.514Z,100631.16
2022-07-25T09:50:35.089Z,100643.09
2022-07-25T09:53:03.874Z,100632.09
2022-07-25T09:55:32.123Z,100622.47
2022-07-25T09:58:00.017Z,100624.41
2022-07-25T10:00:29.825Z,100607.66
2022-07-25T10:03:11.251Z,100622.09
2022-07-25T10:06:03.550Z,100616.09
2022-07-25T10:08:37.167Z,100603.16
2022-07-25T10:11:06.735Z,100600.38
2022-07-25T10:13:38.250Z,100597.16
2022-07-25T10:16:16.483Z,100600.81
2022-07-25T10:18:50.614Z,100597.72
2022-07-25T10:21:29.004Z,100594.38
2022-07-25T10:24:05.327Z,100582.94
2022-07-25T10:26:34.539Z,100594.56
2022-07-25T10:29:02.780Z,100579.16
2022-07-25T10:31:38.442Z,100590.72
2022-07-25T10:34:08.315Z,100576.22
2022-07-25T10:36:45.436Z,100571.50
2022-07-25T10:39:15.383Z,100555.94
2022-07-25T10:41:45.480Z,100561.47
2022-07-25T10:44:14.622Z,100561.06
2022-07-25T10:46:45.037Z,100555.34
2022-07-25T10:49:19.744Z,100541.91
2022-07-25T10:51:57.477Z,100542.63
2022-07-25T10:54:25.357Z,100557.41
2022-07-25T10:56:55.538Z,100535.88
2022-07-25T10:59:29.063Z,100525.53
2022-07-25T11:01:57.025Z,100523.84
2022-07-25T11:04:25.546Z,100510.47
2022-07-25T11:06:54.923Z,100526.09
2022-07-25T11:09:27.298Z,100515.06
2022-07-25T11:11:57.390Z,100522.03
2022-07-25T11:14:27.005Z,100526.56
2022-07-25T11:16:56.947Z,100531.72
2022-07-25T11:19:26.785Z,100536.16
2022-07-25T11:21:57.786Z,100536.75
2022-07-25T11:24:36.859Z,100519.09
2022-07-25T11:27:11.305Z,100511.81
2022-07-25T11:29:40.911Z,100505.75
2022-07-25T11:32:11.739Z,100511.78
2022-07-25T11:34:42.808Z,100514.19
2022-07-25T11:37:14.395Z,100509.53
2022-07-25T11:39:44.049Z,100512.06
2022-07-25T11:42:15.009Z,100511.09
2022-07-25T11:44:47.841Z,100496.09
2022-07-25T11:47:27.859Z,100482.16
2022-07-25T11:49:58.253Z,100509.09
2022-07-25T11:52:30.948Z,100493.09
2022-07-25T11:55:00.603Z,100481.53
2022-07-25T11:57:31.842Z,100488.69
2022-07-25T12:00:01.264Z,100483.06
2022-07-25T12:02:32.141Z,100483.38
2022-07-25T12:05:02.179Z,100491.69
2022-07-25T12:07:42.581Z,100475.69
2022-07-25T12:10:12.722Z,100469.09
2022-07-25T12:12:45.885Z,100476.53
2022-07-25T12:15:15.026Z,100477.56
2022-07-25T12:17:43.269Z,100461.19
2022-07-25T12:20:18.352Z,100466.75
2022-07-25T12:22:48.901Z,100466.47
2022-07-25T12:25:16.766Z,100461.38
2022-07-25T12:27:45.107Z,100466.19
2022-07-25T12:30:14.663Z,100460.88
2022-07-25T12:32:43.465Z,100447.06
2022-07-25T12:35:13.899Z,100443.88
2022-07-25T12:37:42.180Z,100443.25
2022-07-25T12:40:13.836Z,100445.88
2022-07-25T12:42:41.890Z,100442.28
2022-07-25T12:45:10.493Z,100438.00
2022-07-25T12:47:38.567Z,100422.72
2022-07-25T12:50:07.848Z,100418.44
2022-07-25T12:52:35.666Z,100436.06
2022-07-25T12:55:03.453Z,100424.19
2022-07-25T12:57:32.575Z,100412.53
2022-07-25T13:00:00.362Z,100412.50
2022-07-25T13:02:28.192Z,100421.19
2022-07-25T13:04:56.048Z,100409.94
2022-07-25T13:07:23.917Z,100408.72
2022-07-25T13:09:51.751Z,100409.63
2022-07-25T13:12:19.626Z,100413.19
2022-07-25T13:14:49.166Z,100407.56
2022-07-25T13:17:17.221Z,100400.56
2022-07-25T13:19:45.042Z,100394.66
2022-07-25T13:22:12.801Z,100397.63
2022-07-25T13:24:40.610Z,100410.47
2022-07-25T13:27:09.419Z,100411.25
2022-07-25T13:29:37.280Z,100402.50
2022-07-25T13:32:07.178Z,100396.69
2022-07-25T13:34:35.102Z,100398.69
2022-07-25T13:37:02.906Z,100396.69
2022-07-25T13:39:30.822Z,100404.00
2022-07-25T13:41:58.605Z,100408.69
2022-07-25T13:44:26.406Z,100399.75
2022-07-25T13:46:54.224Z,100395.91
2022-07-25T13:49:23.549Z,100401.38
2022-07-25T13:51:51.414Z,100387.78
2022-07-25T13:54:19.231Z,100386.22
2022-07-25T13:56:47.588Z,100379.63
2022-07-25T13:59:20.984Z,100366.38
2022-07-25T14:01:49.354Z,100362.69
2022-07-25T14:04:17.754Z,100360.72
2022-07-25T14:06:52.130Z,100364.97
2022-07-25T14:09:20.841Z,100366.13
2022-07-25T14:11:49.371Z,100359.84
2022-07-25T14:14:18.150Z,100353.22
2022-07-25T14:16:46.075Z,100344.72
2022-07-25T14:19:13.900Z,100331.66
2022-07-25T14:21:41.685Z,100330.38
2022-07-25T14:24:10.977Z,100325.69
2022-07-25T14:26:39.271Z,100335.22
2022-07-25T14:29:11.229Z,100320.09
2022-07-25T14:31:40.660Z,100307.16
2022-07-25T14:34:08.871Z,100312.63
2022-07-25T14:36:36.785Z,100295.41
2022-07-25T14:39:05.640Z,100300.50
2022-07-25T14:41:35.053Z,100300.19
2022-07-25T14:44:02.896Z,100307.00
2022-07-25T14:46:30.725Z,100318.53
2022-07-25T14:48:58.610Z,100316.84
2022-07-25T14:51:26.632Z,100306.75
2022-07-25T14:53:54.399Z,100304.56
2022-07-25T14:56:22.198Z,100314.78
2022-07-25T14:58:51.420Z,100307.88
2022-07-25T15:01:20.987Z,100303.00
2022-07-25T15:03:49.165Z,100293.63
2022-07-25T15:06:17.447Z,100297.41
2022-07-25T15:08:45.451Z,100291.38
2022-07-25T15:11:13.283Z,100289.47
2022-07-25T15:13:41.071Z,100297.66
2022-07-25T15:16:10.429Z,100290.13
2022-07-25T15:19:05.489Z,100293.09
2022-07-25T15:21:27.115Z,100296.16
2022-07-25T15:23:57.175Z,100288.25
2022-07-25T15:26:25.059Z,100291.38
2022-07-25T15:28:53.081Z,100313.66
2022-07-25T15:31:24.048Z,100314.72
2022-07-25T15:33:54.468Z,100324.94
2022-07-25T15:36:25.897Z,100328.22
2022-07-25T15:38:57.151Z,100330.22
2022-07-25T15:41:27.938Z,100309.06
2022-07-25T15:43:56.214Z,100304.72
2022-07-25T15:46:26.565Z,100289.19
2022-07-25T15:48:54.540Z,100275.56
2022-07-25T15:51:22.338Z,100241.81
2022-07-25T15:53:50.174Z,100251.78
2022-07-25T15:56:18.066Z,100253.53
2022-07-25T15:58:49.050Z,100241.78
2022-07-25T16:01:17.007Z,100246.63
2022-07-25T16:03:46.290Z,100235.50
2022-07-25T16:06:18.732Z,100250.03
2022-07-25T16:08:46.957Z,100240.34
2022-07-25T16:11:14.786Z,100222.41
2022-07-25T16:13:42.986Z,100236.13
2022-07-25T16:16:11.139Z,100223.41
2022-07-25T16:18:44.204Z,100231.94
2022-07-25T16:21:13.409Z,100224.72
2022-07-25T16:23:45.560Z,100220.69
2022-07-25T16:26:13.911Z,100231.91
2022-07-25T16:28:41.898Z,100206.38
2022-07-25T16:31:09.941Z,100173.41
2022-07-25T16:33:37.838Z,100186.56
2022-07-25T16:36:06.017Z,100164.75
2022-07-25T16:38:35.358Z,100139.72
2022-07-25T16:41:03.177Z,100124.78
2022-07-25T16:43:30.974Z,100084.19
2022-07-25T16:45:58.798Z,100057.16
2022-07-25T16:48:26.561Z,100003.16
2022-07-25T16:50:54.452Z,99904.03
2022-07-25T16:53:22.201Z,99847.56
2022-07-25T16:55:51.334Z,99807.09
2022-07-25T16:58:19.248Z,99768.94
2022-07-25T17:00:47.030Z,99792.00
2022-07-25T17:03:16.232Z,99771.03
2022-07-25T17:05:44.071Z,99784.88
2022-07-25T17:08:11.866Z,99813.81
2022-07-25T17:10:39.740Z,99823.84
2022-07-25T17:13:08.920Z,99800.06
2022-07-25T17:15:36.917Z,99779.19
2022-07-25T17:18:05.773Z,99795.34
2022-07-25T17:20:33.623Z,99796.88
2022-07-25T17:23:01.469Z,99785.53
2022-07-25T17:25:29.352Z,99763.50
2022-07-25T17:27:57.237Z,99772.41
2022-07-25T17:30:26.697Z,99766.53
2022-07-25T17:32:54.517Z,99767.66
2022-07-25T17:35:22.693Z,99776.84
2022-07-25T17:37:50.556Z,99784.78
2022-07-25T17:40:18.436Z,99785.13
2022-07-25T17:42:47.574Z,99779.75
2022-07-25T17:45:15.825Z,99774.81
2022-07-25T17:47:45.375Z,99773.31
2022-07-25T17:50:14.041Z,99773.72
2022-07-25T17:52:41.810Z,99764.59
2022-07-25T17:55:11.959Z,99754.09
2022-07-25T17:57:42.052Z,99760.44
2022-07-25T18:00:11.786Z,99780.03
2022-07-25T18:02:40.094Z,99825.31
2022-07-25T18:05:10.209Z,99853.81
2022-07-25T18:07:40.792Z,99854.19
2022-07-25T18:10:09.184Z,99860.47
2022-07-25T18:12:36.950Z,99825.00
2022-07-25T18:15:05.516Z,99820.00
2022-07-25T18:17:33.484Z,99843.94
2022-07-25T18:20:01.344Z,99889.44
2022-07-25T18:22:30.785Z,99953.63
2022-07-25T18:24:58.617Z,99990.06
2022-07-25T18:27:26.839Z,100012.38
2022-07-25T18:29:54.622Z,100052.31
2022-07-25T18:32:22.449Z,100076.22
2022-07-25T18:34:50.325Z,100070.56
2022-07-25T18:37:18.214Z,100060.25
2022-07-25T18:39:47.335Z,100052.16
2022-07-25T18:42:15.593Z,100082.09
2022-07-25T18:44:43.516Z,100103.88
2022-07-25T18:47:11.875Z,100107.75
2022-07-25T18:49:41.984Z,100090.56
2022-07-25T18:52:09.842Z,100079.63
2022-07-25T18:54:37.721Z,100047.13
2022-07-25T18:57:07.427Z,100031.16
2022-07-25T18:59:35.330Z,100017.25
2022-07-25T19:02:03.298Z,100042.53
2022-07-25T19:04:31.189Z,100071.88
2022-07-25T19:06:59.333Z,100079.41
2022-07-25T19:09:27.123Z,100093.38
2022-07-25T19:11:56.561Z,100112.47
2022-07-25T19:14:27.353Z,100101.63
2022-07-25T19:16:55.623Z,100112.16
2022-07-25T19:19:23.432Z,100119.16
2022-07-25T19:21:51.349Z,100083.66
2022-07-25T19:24:19.262Z,100056.22
2022-07-25T19:26:47.865Z,100056.56
2022-07-25T19:29:17.968Z,100063.09
2022-07-25T19:31:47.204Z,100062.97
2022-07-25T19:34:14.996Z,100055.28
2022-07-25T19:36:45.815Z,100041.28
2022-07-25T19:39:14.281Z,100048.59
2022-07-25T19:41:46.646Z,100067.84
2022-07-25T19:44:15.074Z,100082.75
2022-07-25T19:46:42.912Z,100073.56
2022-07-25T19:49:12.164Z,100090.84
2022-07-25T19:51:40.121Z,100066.78
2022-07-25T19:54:09.116Z,100076.59
2022-07-25T19:56:37.346Z,100063.84
2022-07-25T19:59:05.548Z,100062.03
2022-07-25T20:01:35.763Z,100065.78
2022-07-25T20:04:05.461Z,100071.88
2022-07-25T20:06:35.594Z,100071.16
2022-07-25T20:09:04.135Z,100081.94
2022-07-25T20:11:32.453Z,100085.03
2022-07-25T20:14:01.740Z,100108.09
2022-07-25T20:16:29.625Z,100109.50
2022-07-25T20:18:57.492Z,100101.84
2022-07-25T20:21:25.307Z,100119.41
2022-07-25T20:23:54.534Z,100125.13
2022-07-25T20:26:22.618Z,100137.03
2022-07-25T20:28:50.420Z,100146.31
2022-07-25T20:31:22.208Z,100144.59
2022-07-25T20:33:50.122Z,100148.03
2022-07-25T20:36:18.248Z,100169.16
2022-07-25T20:38:46.024Z,100181.47
2022-07-25T20:41:15.603Z,100184.50
2022-07-25T20:43:43.592Z,100187.47
2022-07-25T20:46:11.436Z,100193.41
2022-07-25T20:48:45.147Z,100210.88
2022-07-25T20:51:26.767Z,100213.31
2022-07-25T20:53:54.635Z,100219.31
2022-07-25T20:56:23.807Z,100222.06
2022-07-25T20:58:52.006Z,100226.78
2022-07-25T21:01:19.933Z,100241.22
2022-07-25T21:03:47.883Z,100237.19
2022-07-25T21:06:15.836Z,100248.94
2022-07-25T21:08:43.614Z,100262.47
2022-07-25T21:11:11.379Z,100268.97
2022-07-25T21:13:40.456Z,100267.78
2022-07-25T21:16:08.957Z,100267.44
2022-07-25T21:18:36.741Z,100277.47
2022-07-25T21:21:06.678Z,100275.00
2022-07-25T21:23:38.807Z,100273.81
2022-07-25T21:26:07.065Z,100280.38
2022-07-25T21:28:34.950Z,100291.38
2022-07-25T21:31:04.418Z,100298.28
2022-07-25T21:33:32.548Z,100300.44
2022-07-25T21:36:00.408Z,100293.91
2022-07-25T21:38:30.379Z,100307.69
2022-07-25T21:41:00.186Z,100313.38
2022-07-25T21:43:28.001Z,100308.34
2022-07-25T21:45:55.965Z,100315.59
2022-07-25T21:48:39.130Z,100328.03
2022-07-25T21:51:07.655Z,100333.09
2022-07-25T21:53:35.794Z,100332.81
2022-07-25T21:56:03.714Z,100331.53
2022-07-25T21:58:31.520Z,100332.31
2022-07-25T22:00:59.470Z,100342.19
2022-07-25T22:03:28.764Z,100349.34
2022-07-25T22:05:56.559Z,100362.25
2022-07-25T22:08:24.431Z,100370.00
2022-07-25T22:10:52.295Z,100374.06
2022-07-25T22:13:20.151Z,100379.84
2022-07-25T22:15:47.953Z,100372.09
2022-07-25T22:18:15.812Z,100384.31
2022-07-25T22:20:45.201Z,100377.91
2022-07-25T22:23:12.984Z,100395.00
2022-07-25T22:25:40.803Z,100395.91
2022-07-25T22:28:09.396Z,100398.63
2022-07-25T22:30:42.220Z,100402.09
2022-07-25T22:33:10.003Z,100416.06
2022-07-25T22:35:38.691Z,100409.19
2022-07-25T22:38:09.185Z,100418.59
2022-07-25T22:40:37.199Z,100414.41
2022-07-25T22:43:05.402Z,100422.03
2022-07-25T22:45:33.214Z,100432.34
2022-07-25T22:48:00.974Z,100422.44
2022-07-25T22:50:28.728Z,100421.75
2022-07-25T22:52:56.535Z,100423.47
2022-07-25T22:55:25.775Z,100434.88
2022-07-25T22:57:53.541Z,100438.22
2022-07-25T23:00:21.322Z,100446.56
2022-07-25T23:02:49.186Z,100448.84
2022-07-25T23:05:17.078Z,100459.50
2022-07-25T23:07:44.821Z,100461.91
2022-07-25T23:10:12.744Z,100463.78
2022-07-25T23:12:42.118Z,100463.53
2022-07-25T23:15:10.721Z,100460.06
2022-07-25T23:17:38.484Z,100465.25
2022-07-25T23:20:07.587Z,100465.84
2022-07-25T23:22:35.481Z,100462.97
2022-07-25T23:25:03.282Z,100454.31
2022-07-25T23:27:33.903Z,100454.09
2022-07-25T23:30:05.084Z,100448.59
2022-07-25T23:32:32.984Z,100446.31
2022-07-25T23:35:00.804Z,100441.75
2022-07-25T23:37:28.571Z,100432.72
2022-07-25T23:39:56.400Z,100435.03
2022-07-25T23:42:24.197Z,100441.72
2022-07-25T23:44:52.035Z,100438.41
2022-07-25T23:47:25.640Z,100449.00
2022-07-25T23:50:05.946Z,100443.63
2022-07-25T23:52:33.743Z,100445.09
2022-07-25T23:55:01.647Z,100453.00
2022-07-25T23:57:29.418Z,100449.25
2022-07-25T23:59:57.273Z,100456.25
